Flight Track Log - Related Links

Times and Time Zones

All times are in EDT time to prevent confusion due to time zone crossing. See the N68JV flight status page for this flight to view local times or setup timezone preferences in your user account.

Time Position Orientation Groundspeed Altitude Reporting Facility
EDT Latitude Longitude Course Direction KTS MPH feet Rate Location/Type
Mon 09:12:39 AM 32.4358 -94.2136 111° Southeast 258 297 5,400  Level Fort Worth Center
Mon 09:13:22 AM 32.4133 -94.1553 115° Southeast 283 326 7,600 3,107 Climbing Fort Worth Center
Mon 09:13:35 AM 32.4083 -94.1211 100° East 273 314 8,300 2,548 Climbing Fort Worth Center
Mon 09:14:35 AM 32.3919 -94.0553 106° East 281 323 10,700 2,650 Climbing Fort Worth Center
Mon 09:15:35 AM 32.3536 -93.9533 114° Southeast 296 341 13,600 2,450 Climbing Fort Worth Center
Mon 09:16:35 AM 32.3142 -93.8761 121° Southeast 308 354 15,600 1,900 Climbing Fort Worth Center
Mon 09:17:35 AM 32.2672 -93.7725 118° Southeast 320 368 17,400 1,736 Climbing Fort Worth Center
Mon 09:18:00 AM 32.2033 -93.3434 111° Southeast  Level Estimated
Mon 09:18:36 AM 32.2492 -93.6528 100° East 344 396 19,100  Level Fort Worth Center
Mon 09:19:35 AM 32.2311 -93.5406 101° East 350 403 20,600 1,571 Climbing Fort Worth Center
Mon 09:21:24 AM 32.1922 -93.3286 102° East 374 430 23,500 1,544 Climbing Houston Center
Mon 09:22:26 AM 32.1694 -93.2042 102° East 381 438 25,000 1,366 Climbing Houston Center
Mon 09:23:27 AM 32.1464 -93.0744 102° East 394 453 26,300 1,268 Climbing Houston Center
Mon 09:24:29 AM 32.1228 -92.9406 102° East 408 470 27,600 1,122 Climbing Houston Center
Mon 09:25:30 AM 32.0981 -92.8036 102° East 418 481 28,600 976 Climbing Houston Center
Mon 09:26:32 AM 32.0722 -92.6589 102° East 427 491 29,600 1,113 Climbing Houston Center
Mon 09:27:34 AM 32.0461 -92.5189 102° East 435 501 30,900 1,317 Climbing Houston Center
Mon 09:28:35 AM 32.0208 -92.3789 102° East 436 502 32,300 1,268 Climbing Houston Center
Mon 09:29:37 AM 31.9950 -92.2403 102° East 434 499 33,500 1,210 Climbing Houston Center
Mon 09:30:39 AM 31.9697 -92.1039 102° East 428 493 34,800 1,073 Climbing Houston Center
Mon 09:31:40 AM 31.9392 -91.9403 102° East 434 499 35,700 976 Climbing Houston Center
Mon 09:32:42 AM 31.9136 -91.8042 102° East 428 493 36,800 629 Climbing Houston Center
Mon 09:33:44 AM 31.8869 -91.6681 103° East 426 490 37,000 98 Climbing Houston Center
Mon 09:34:45 AM 31.8597 -91.5250 103° East 443 510 37,000  Level Houston Center
Mon 09:35:48 AM 31.8317 -91.3767 103° East 459 528 37,000  Level Houston Center
Mon 09:36:49 AM 31.8025 -91.2269 103° East 469 540 37,000 -49 Level Houston Center
Mon 09:37:50 AM 31.7692 -91.0608 103° East 473 544 36,900  Descending Houston Center
Mon 09:38:52 AM 31.7394 -90.9125 103° East 468 539 37,000 48 Climbing Houston Center
Mon 09:39:54 AM 31.7097 -90.7631 103° East 469 540 37,000  Level Houston Center
Mon 09:40:56 AM 31.6797 -90.6136 103° East 471 542 37,000  Level Houston Center
Mon 09:41:57 AM 31.6506 -90.4644 103° East 469 540 37,000  Level Houston Center
Mon 09:42:59 AM 31.6147 -90.2878 103° East 465 535 37,000  Level Houston Center
Mon 09:44:01 AM 31.5842 -90.1414 104° East 463 533 37,000  Level Houston Center
Mon 09:45:03 AM 31.5544 -89.9928 103° East 466 536 37,000 -49 Level Houston Center
Mon 09:46:04 AM 31.5233 -89.8450 104° East 467 537 36,900  Descending Houston Center
Mon 09:47:06 AM 31.4933 -89.6975 103° East 465 535 37,000 48 Climbing Houston Center
Mon 09:48:08 AM 31.4631 -89.5503 104° East 465 535 37,000  Level Houston Center
Mon 09:49:10 AM 31.4267 -89.3772 104° East 464 534 37,000  Level Houston Center
Mon 09:50:12 AM 31.3956 -89.2336 104° East 459 528 37,000  Level Houston Center
Mon 09:51:14 AM 31.3661 -89.0911 104° East 454 522 37,000  Level Houston Center
Mon 09:52:15 AM 31.3356 -88.9481 104° East 452 520 37,000  Level Houston Center
Mon 09:53:18 AM 31.3042 -88.8047 104° East 455 524 37,000  Level Houston Center
Mon 09:54:19 AM 31.2739 -88.6628 104° East 451 519 37,000  Level Houston Center
Mon 09:55:21 AM 31.2428 -88.5200 104° East 453 521 37,000  Level Houston Center
Mon 09:56:23 AM 31.2117 -88.3736 104° East 450 518 37,000  Level Houston Center
Mon 09:57:25 AM 31.1728 -88.2014 105° East 465 535 37,000  Level Houston Center
Mon 09:58:27 AM 31.1411 -88.0594 105° East 460 529 37,000  Level Houston Center
Mon 09:59:29 AM 31.1106 -87.9178 104° East 449 517 37,000  Level Houston Center
Mon 10:00:31 AM 31.0778 -87.7756 105° East 452 520 37,000  Level Houston Center
Mon 10:01:33 AM 31.0456 -87.6300 104° East 450 518 37,000  Level Houston Center
Mon 10:02:35 AM 31.0133 -87.4883 105° East 452 520 37,000  Level Houston Center
Mon 10:03:37 AM 30.9814 -87.3464 105° East 453 521 37,000  Level Houston Center
Mon 10:04:38 AM 30.9489 -87.2044 105° East 453 521 37,000  Level Houston Center
Mon 10:05:40 AM 30.9128 -87.0525 105° East 453 521 37,000  Level Houston Center
Mon 10:06:42 AM 30.8803 -86.9117 105° East 451 519 37,000  Level Houston Center
Mon 10:07:44 AM 30.8356 -86.7458 107° East 448 516 37,000  Level Houston Center
Mon 10:08:46 AM 30.7881 -86.6117 112° Southeast 450 518 37,000  Level Houston Center
Mon 10:09:48 AM 30.7428 -86.4778 111° Southeast 448 516 37,000  Level Houston Center
Mon 10:11:06 AM 30.6842 -86.3106 112° Southeast 440 506 37,000  Level Jacksonville Center
Mon 10:12:06 AM 30.6375 -86.1761 112° Southeast 440 506 37,000  Level Jacksonville Center
Mon 10:13:06 AM 30.5931 -86.0417 111° Southeast 440 506 37,000  Level Jacksonville Center
Mon 10:14:06 AM 30.5461 -85.9100 112° Southeast 440 506 37,000  Level Jacksonville Center
Mon 10:15:06 AM 30.4992 -85.7736 112° Southeast 440 506 37,000  Level Jacksonville Center
Mon 10:16:06 AM 30.4519 -85.6444 113° Southeast 440 506 37,000  Level Jacksonville Center
Mon 10:17:06 AM 30.4067 -85.5083 111° Southeast 440 506 37,000  Level Jacksonville Center
Mon 10:18:06 AM 30.3592 -85.3769 113° Southeast 440 506 37,000  Level Jacksonville Center
Mon 10:19:06 AM 30.3117 -85.2458 113° Southeast 440 506 37,000  Level Jacksonville Center
Mon 10:20:06 AM 30.2639 -85.1075 112° Southeast 440 506 37,000  Level Jacksonville Center
Mon 10:21:06 AM 30.2161 -84.9767 113° Southeast 440 506 37,000  Level Jacksonville Center
Mon 10:22:06 AM 30.1681 -84.8411 112° Southeast 440 506 37,000  Level Jacksonville Center
Mon 10:23:06 AM 30.1200 -84.7128 113° Southeast 440 506 37,000  Level Jacksonville Center
Mon 10:24:06 AM 30.0717 -84.5775 112° Southeast 440 506 37,000  Level Jacksonville Center
Mon 10:25:06 AM 30.0253 -84.4472 112° Southeast 440 506 37,000 -50 Level Jacksonville Center
Mon 10:26:06 AM 29.9747 -84.3144 114° Southeast 440 506 36,900 -550 Descending Jacksonville Center
Mon 10:27:06 AM 29.9258 -84.1867 114° Southeast 440 506 35,900 -1,500 Descending Jacksonville Center
Mon 10:28:06 AM 29.8811 -84.0567 112° Southeast 440 506 33,900 -2,150 Descending Jacksonville Center
Mon 10:29:06 AM 29.8300 -83.9364 116° Southeast 435 501 31,600 -1,450 Descending Jacksonville Center
Mon 10:30:06 AM 29.7369 -83.8422 139° Southeast 430 495 31,000 -300 Descending Jacksonville Center
Mon 10:31:06 AM 29.6225 -83.7694 151° Southeast 442 509 31,000  Level Jacksonville Center
Mon 10:32:06 AM 29.5125 -83.6969 150° Southeast 454 522 31,000 -100 Level Jacksonville Center
Mon 10:33:06 AM 29.3981 -83.6244 151° Southeast 459 528 30,800 -1,200 Descending Jacksonville Center
Mon 10:34:06 AM 29.2878 -83.5544 151° Southeast 465 535 28,600 -2,050 Descending Jacksonville Center
Mon 10:35:06 AM 29.1775 -83.4825 150° Southeast 455 524 26,700 -1,700 Descending Jacksonville Center
Mon 10:36:06 AM 29.0672 -83.4128 151° Southeast 455 524 25,200 -1,700 Descending Jacksonville Center
Mon 10:37:06 AM 28.9464 -83.3339 150° Southeast 455 524 23,300 -2,050 Descending Jacksonville Center
Mon 10:38:06 AM 28.8422 -83.2694 152° Southeast 445 512 21,100 -2,200 Descending Jacksonville Center
Mon 10:39:06 AM 28.7381 -83.2028 151° Southeast 434 499 18,900 -2,000 Descending Jacksonville Center
Mon 10:40:06 AM 28.6381 -83.1386 151° Southeast 422 486 17,100 -1,898 Descending Jacksonville Center
Mon 10:40:44 AM 28.5667 -83.1000 155° Southeast 403 464 15,800 -1,962 Descending Tampa TRACON
Mon 10:41:50 AM 28.4667 -83.0333 150° Southeast 387 445 13,700 -1,984 Descending Tampa TRACON
Mon 10:42:51 AM 28.3833 -82.9833 152° Southeast 376 433 11,600 -1,339 Descending Tampa TRACON
Mon 10:43:51 AM 28.3000 -82.9167 145° Southeast 355 409 11,000 -316 Descending Tampa TRACON
Mon 10:44:45 AM 28.2167 -82.8500 145° Southeast 372 428 11,000 -353 Level Tampa TRACON
Mon 10:45:50 AM 28.1500 -82.7667 132° Southeast 328 377 10,300 -1,286 Descending Tampa TRACON
Mon 10:46:51 AM 28.0833 -82.7000 139° Southeast 294 338 8,300 -2,220 Descending Tampa TRACON
Mon 10:47:57 AM 28.0167 -82.6333 139° Southeast 273 314 5,600 -1,650 Descending Tampa TRACON
Mon 10:48:51 AM 27.9667 -82.6333 180° South 256 295 5,000 -750 Descending Tampa TRACON
Mon 10:49:57 AM 27.8833 -82.6333 180° South 270 311 4,100 -1,000 Descending Tampa TRACON
Mon 10:50:51 AM 27.8167 -82.6167 168° South 217 250 3,000 -842 Descending Tampa TRACON
Mon 10:51:51 AM 27.8500 -82.5500 61° Northeast 205 236 2,500 -650 Descending Tampa TRACON
Mon 10:52:51 AM 27.8833 -82.5333 24° Northeast 181 208 1,700 -857 Descending Tampa TRACON
Mon 10:53:57 AM 27.9333 -82.5333 360° North 134 154 700 -909 Descending Tampa TRACON

Login

Don't have an account? Register now (free) for customized features, flight alerts, and more!